sensor_id;sensor_type;location;lat;lon;timestamp;temperature;humidity
39325;DHT22;25037;49.488;9.900;2023-07-31T15:22:40;28.00;42.00
39325;DHT22;25037;49.488;9.900;2023-07-31T15:25:07;27.10;42.80
39325;DHT22;25037;49.488;9.900;2023-07-31T15:27:35;26.80;43.50
39325;DHT22;25037;49.488;9.900;2023-07-31T15:30:01;27.00;43.40
39325;DHT22;25037;49.488;9.900;2023-07-31T15:32:30;27.20;42.90
39325;DHT22;25037;49.488;9.900;2023-07-31T15:34:57;27.50;42.50
39325;DHT22;25037;49.488;9.900;2023-07-31T15:37:24;27.50;42.30
39325;DHT22;25037;49.488;9.900;2023-07-31T15:39:51;27.60;42.20
39325;DHT22;25037;49.488;9.900;2023-07-31T15:42:18;27.60;42.10
39325;DHT22;25037;49.488;9.900;2023-07-31T15:44:45;27.60;42.20
39325;DHT22;25037;49.488;9.900;2023-07-31T15:47:11;27.50;42.30
39325;DHT22;25037;49.488;9.900;2023-07-31T15:49:39;27.50;42.30
39325;DHT22;25037;49.488;9.900;2023-07-31T15:52:06;27.40;42.30
39325;DHT22;25037;49.488;9.900;2023-07-31T15:54:34;27.30;42.20
39325;DHT22;25037;49.488;9.900;2023-07-31T15:57:00;27.20;42.50
39325;DHT22;25037;49.488;9.900;2023-07-31T15:59:27;27.20;42.60
39325;DHT22;25037;49.488;9.900;2023-07-31T16:01:54;27.20;42.60
39325;DHT22;25037;49.488;9.900;2023-07-31T16:04:21;27.20;42.80
39325;DHT22;25037;49.488;9.900;2023-07-31T16:06:47;27.20;42.80
39325;DHT22;25037;49.488;9.900;2023-07-31T16:09:14;27.10;42.90
39325;DHT22;25037;49.488;9.900;2023-07-31T16:11:41;27.10;43.00
39325;DHT22;25037;49.488;9.900;2023-07-31T16:14:09;27.00;43.00
39325;DHT22;25037;49.488;9.900;2023-07-31T16:16:35;27.00;43.10
39325;DHT22;25037;49.488;9.900;2023-07-31T16:19:02;27.00;43.20
39325;DHT22;25037;49.488;9.900;2023-07-31T16:21:30;27.00;43.30
39325;DHT22;25037;49.488;9.900;2023-07-31T16:23:56;27.00;43.30
39325;DHT22;25037;49.488;9.900;2023-07-31T16:26:23;27.00;43.50
39325;DHT22;25037;49.488;9.900;2023-07-31T16:28:50;26.90;43.50
39325;DHT22;25037;49.488;9.900;2023-07-31T16:31:17;26.80;43.60
39325;DHT22;25037;49.488;9.900;2023-07-31T16:33:44;26.70;43.80
39325;DHT22;25037;49.488;9.900;2023-07-31T16:36:10;26.70;43.90
39325;DHT22;25037;49.488;9.900;2023-07-31T16:38:37;26.60;43.90
39325;DHT22;25037;49.488;9.900;2023-07-31T16:41:05;26.50;44.10
39325;DHT22;25037;49.488;9.900;2023-07-31T16:43:31;26.40;44.30
39325;DHT22;25037;49.488;9.900;2023-07-31T16:45:58;26.30;44.40
39325;DHT22;25037;49.488;9.900;2023-07-31T16:48:25;26.30;44.50
39325;DHT22;25037;49.488;9.900;2023-07-31T16:50:53;26.30;44.60
39325;DHT22;25037;49.488;9.900;2023-07-31T16:53:20;26.30;44.70
39325;DHT22;25037;49.488;9.900;2023-07-31T16:55:46;26.20;44.80
39325;DHT22;25037;49.488;9.900;2023-07-31T16:58:13;26.10;44.90
39325;DHT22;25037;49.488;9.900;2023-07-31T17:00:40;26.10;45.10
39325;DHT22;25037;49.488;9.900;2023-07-31T17:03:07;26.00;45.30
39325;DHT22;25037;49.488;9.900;2023-07-31T17:05:34;26.00;45.40
39325;DHT22;25037;49.488;9.900;2023-07-31T17:08:02;26.00;45.50
39325;DHT22;25037;49.488;9.900;2023-07-31T17:10:29;25.90;45.60
39325;DHT22;25037;49.488;9.900;2023-07-31T17:12:56;25.90;45.60
39325;DHT22;25037;49.488;9.900;2023-07-31T17:15:23;25.90;45.60
39325;DHT22;25037;49.488;9.900;2023-07-31T17:17:52;25.80;45.60
39325;DHT22;25037;49.488;9.900;2023-07-31T17:20:22;25.80;45.80
39325;DHT22;25037;49.488;9.900;2023-07-31T17:38:56;25.40;46.20
39325;DHT22;25037;49.488;9.900;2023-07-31T17:41:25;25.30;46.40
39325;DHT22;25037;49.488;9.900;2023-07-31T17:43:54;25.30;46.50
39325;DHT22;25037;49.488;9.900;2023-07-31T17:46:20;25.20;46.70
39325;DHT22;25037;49.488;9.900;2023-07-31T17:48:49;25.10;46.90
39325;DHT22;25037;49.488;9.900;2023-07-31T17:51:16;25.10;47.10
39325;DHT22;25037;49.488;9.900;2023-07-31T17:53:43;25.00;47.20
39325;DHT22;25037;49.488;9.900;2023-07-31T17:56:10;25.00;47.40
39325;DHT22;25037;49.488;9.900;2023-07-31T17:58:36;24.90;47.50
39325;DHT22;25037;49.488;9.900;2023-07-31T18:01:03;24.80;47.60
39325;DHT22;25037;49.488;9.900;2023-07-31T18:03:30;24.80;47.80
39325;DHT22;25037;49.488;9.900;2023-07-31T18:05:57;24.80;48.10
39325;DHT22;25037;49.488;9.900;2023-07-31T18:08:23;24.70;48.20
39325;DHT22;25037;49.488;9.900;2023-07-31T18:10:51;24.70;48.30
39325;DHT22;25037;49.488;9.900;2023-07-31T18:13:17;24.60;48.40
39325;DHT22;25037;49.488;9.900;2023-07-31T18:15:45;24.60;48.80
39325;DHT22;25037;49.488;9.900;2023-07-31T18:18:13;24.50;49.40
39325;DHT22;25037;49.488;9.900;2023-07-31T18:20:40;24.50;49.90
39325;DHT22;25037;49.488;9.900;2023-07-31T18:23:07;24.40;50.50
39325;DHT22;25037;49.488;9.900;2023-07-31T18:25:33;24.30;50.90
39325;DHT22;25037;49.488;9.900;2023-07-31T18:28:00;24.30;51.80
39325;DHT22;25037;49.488;9.900;2023-07-31T18:30:27;24.20;52.50
39325;DHT22;25037;49.488;9.900;2023-07-31T18:32:54;24.10;53.00
39325;DHT22;25037;49.488;9.900;2023-07-31T18:35:21;24.10;53.70
39325;DHT22;25037;49.488;9.900;2023-07-31T18:37:47;24.00;54.10
39325;DHT22;25037;49.488;9.900;2023-07-31T18:40:14;23.80;54.70
39325;DHT22;25037;49.488;9.900;2023-07-31T18:42:41;23.80;55.40
39325;DHT22;25037;49.488;9.900;2023-07-31T18:45:08;23.70;56.00
39325;DHT22;25037;49.488;9.900;2023-07-31T18:47:34;23.50;56.60
39325;DHT22;25037;49.488;9.900;2023-07-31T18:50:01;23.40;57.10
39325;DHT22;25037;49.488;9.900;2023-07-31T18:52:28;23.30;57.20
39325;DHT22;25037;49.488;9.900;2023-07-31T18:54:55;23.30;57.60
39325;DHT22;25037;49.488;9.900;2023-07-31T18:57:22;23.20;57.90
39325;DHT22;25037;49.488;9.900;2023-07-31T18:59:49;23.10;58.20
39325;DHT22;25037;49.488;9.900;2023-07-31T19:02:15;23.00;58.40
39325;DHT22;25037;49.488;9.900;2023-07-31T19:04:42;22.90;58.80
39325;DHT22;25037;49.488;9.900;2023-07-31T19:07:09;22.70;59.00
39325;DHT22;25037;49.488;9.900;2023-07-31T19:09:35;22.70;59.40
39325;DHT22;25037;49.488;9.900;2023-07-31T19:12:02;22.60;59.70
39325;DHT22;25037;49.488;9.900;2023-07-31T19:14:29;22.50;59.70
39325;DHT22;25037;49.488;9.900;2023-07-31T19:16:56;22.40;60.00
39325;DHT22;25037;49.488;9.900;2023-07-31T19:19:23;22.30;60.30
39325;DHT22;25037;49.488;9.900;2023-07-31T19:21:49;22.30;60.80
39325;DHT22;25037;49.488;9.900;2023-07-31T19:24:16;22.20;60.90
39325;DHT22;25037;49.488;9.900;2023-07-31T19:26:43;22.20;61.10
39325;DHT22;25037;49.488;9.900;2023-07-31T19:29:10;22.10;61.30
39325;DHT22;25037;49.488;9.900;2023-07-31T19:31:40;22.00;61.60
39325;DHT22;25037;49.488;9.900;2023-07-31T19:34:09;21.90;62.00
39325;DHT22;25037;49.488;9.900;2023-07-31T19:36:37;21.90;62.40
39325;DHT22;25037;49.488;9.900;2023-07-31T19:39:04;21.80;62.60
39325;DHT22;25037;49.488;9.900;2023-07-31T19:41:31;21.80;62.90
39325;DHT22;25037;49.488;9.900;2023-07-31T19:43:58;21.70;63.30
39325;DHT22;25037;49.488;9.900;2023-07-31T19:46:24;21.70;63.40
39325;DHT22;25037;49.488;9.900;2023-07-31T19:48:51;21.60;63.50
39325;DHT22;25037;49.488;9.900;2023-07-31T19:51:20;21.60;63.70
39325;DHT22;25037;49.488;9.900;2023-07-31T19:53:46;21.60;64.10
39325;DHT22;25037;49.488;9.900;2023-07-31T19:56:13;21.50;64.20
39325;DHT22;25037;49.488;9.900;2023-07-31T19:58:40;21.50;64.40
39325;DHT22;25037;49.488;9.900;2023-07-31T20:01:06;21.40;64.60
39325;DHT22;25037;49.488;9.900;2023-07-31T20:03:33;21.40;64.80
39325;DHT22;25037;49.488;9.900;2023-07-31T20:06:00;21.30;65.10
39325;DHT22;25037;49.488;9.900;2023-07-31T20:08:27;21.30;65.30
39325;DHT22;25037;49.488;9.900;2023-07-31T20:10:53;21.30;65.50
39325;DHT22;25037;49.488;9.900;2023-07-31T20:13:20;21.30;65.60
39325;DHT22;25037;49.488;9.900;2023-07-31T20:15:47;21.30;65.70
39325;DHT22;25037;49.488;9.900;2023-07-31T20:18:14;21.30;65.90
39325;DHT22;25037;49.488;9.900;2023-07-31T20:20:40;21.20;65.90
39325;DHT22;25037;49.488;9.900;2023-07-31T20:23:07;21.20;66.10
39325;DHT22;25037;49.488;9.900;2023-07-31T20:25:34;21.20;66.30
39325;DHT22;25037;49.488;9.900;2023-07-31T20:28:02;21.20;66.40
39325;DHT22;25037;49.488;9.900;2023-07-31T20:30:29;21.20;66.60
39325;DHT22;25037;49.488;9.900;2023-07-31T20:32:55;21.10;66.80
39325;DHT22;25037;49.488;9.900;2023-07-31T20:35:23;21.10;66.80
39325;DHT22;25037;49.488;9.900;2023-07-31T20:37:50;21.10;66.80
39325;DHT22;25037;49.488;9.900;2023-07-31T20:40:17;21.00;67.00
39325;DHT22;25037;49.488;9.900;2023-07-31T20:42:55;21.00;67.00
39325;DHT22;25037;49.488;9.900;2023-07-31T20:45:24;21.00;67.40
39325;DHT22;25037;49.488;9.900;2023-07-31T20:47:51;21.00;67.20
39325;DHT22;25037;49.488;9.900;2023-07-31T20:50:18;21.00;67.30
39325;DHT22;25037;49.488;9.900;2023-07-31T20:52:45;21.00;67.40
39325;DHT22;25037;49.488;9.900;2023-07-31T20:55:11;21.00;67.50
39325;DHT22;25037;49.488;9.900;2023-07-31T20:57:38;21.00;67.60
39325;DHT22;25037;49.488;9.900;2023-07-31T21:00:05;20.90;67.70
39325;DHT22;25037;49.488;9.900;2023-07-31T21:02:32;21.00;67.80
39325;DHT22;25037;49.488;9.900;2023-07-31T21:04:59;21.00;67.80
39325;DHT22;25037;49.488;9.900;2023-07-31T21:07:26;20.90;67.80
39325;DHT22;25037;49.488;9.900;2023-07-31T21:09:53;21.00;67.80
39325;DHT22;25037;49.488;9.900;2023-07-31T21:12:19;20.90;67.90
39325;DHT22;25037;49.488;9.900;2023-07-31T21:14:46;20.90;68.00
39325;DHT22;25037;49.488;9.900;2023-07-31T21:17:13;20.90;67.90
39325;DHT22;25037;49.488;9.900;2023-07-31T21:19:42;20.80;67.90
39325;DHT22;25037;49.488;9.900;2023-07-31T21:22:10;20.80;68.10
39325;DHT22;25037;49.488;9.900;2023-07-31T21:24:39;20.80;68.10
39325;DHT22;25037;49.488;9.900;2023-07-31T21:27:07;20.80;68.30
39325;DHT22;25037;49.488;9.900;2023-07-31T21:29:33;20.80;68.50
39325;DHT22;25037;49.488;9.900;2023-07-31T21:32:00;20.80;68.60
39325;DHT22;25037;49.488;9.900;2023-07-31T21:34:27;20.80;68.60
39325;DHT22;25037;49.488;9.900;2023-07-31T21:36:54;20.80;68.80
39325;DHT22;25037;49.488;9.900;2023-07-31T21:39:21;20.80;68.70
39325;DHT22;25037;49.488;9.900;2023-07-31T21:41:47;20.80;68.80
39325;DHT22;25037;49.488;9.900;2023-07-31T21:44:14;20.80;68.90
39325;DHT22;25037;49.488;9.900;2023-07-31T21:46:41;20.80;69.00
39325;DHT22;25037;49.488;9.900;2023-07-31T21:49:08;20.80;69.00
39325;DHT22;25037;49.488;9.900;2023-07-31T21:51:34;20.80;68.90
39325;DHT22;25037;49.488;9.900;2023-07-31T21:54:01;20.80;69.00
39325;DHT22;25037;49.488;9.900;2023-07-31T21:56:28;20.80;69.10
39325;DHT22;25037;49.488;9.900;2023-07-31T21:58:54;20.80;69.10
39325;DHT22;25037;49.488;9.900;2023-07-31T22:01:21;20.80;69.20
39325;DHT22;25037;49.488;9.900;2023-07-31T22:03:48;20.80;69.30
39325;DHT22;25037;49.488;9.900;2023-07-31T22:06:15;20.80;69.40
39325;DHT22;25037;49.488;9.900;2023-07-31T22:08:41;20.80;69.50
39325;DHT22;25037;49.488;9.900;2023-07-31T22:11:08;20.80;69.50
39325;DHT22;25037;49.488;9.900;2023-07-31T22:13:35;20.70;69.60
39325;DHT22;25037;49.488;9.900;2023-07-31T22:16:01;20.70;69.70
39325;DHT22;25037;49.488;9.900;2023-07-31T22:18:28;20.70;69.80
39325;DHT22;25037;49.488;9.900;2023-07-31T22:20:55;20.70;69.90
39325;DHT22;25037;49.488;9.900;2023-07-31T22:23:22;20.80;69.90
39325;DHT22;25037;49.488;9.900;2023-07-31T22:25:48;20.70;70.00
39325;DHT22;25037;49.488;9.900;2023-07-31T22:28:15;20.70;70.00
39325;DHT22;25037;49.488;9.900;2023-07-31T22:30:47;20.70;70.00
39325;DHT22;25037;49.488;9.900;2023-07-31T22:33:14;20.70;70.00
39325;DHT22;25037;49.488;9.900;2023-07-31T22:35:41;20.70;70.10
39325;DHT22;25037;49.488;9.900;2023-07-31T22:38:08;20.70;70.20
39325;DHT22;25037;49.488;9.900;2023-07-31T22:40:35;20.70;70.20
39325;DHT22;25037;49.488;9.900;2023-07-31T22:43:01;20.70;70.30
39325;DHT22;25037;49.488;9.900;2023-07-31T22:45:28;20.70;70.30
39325;DHT22;25037;49.488;9.900;2023-07-31T22:47:55;20.70;70.40
39325;DHT22;25037;49.488;9.900;2023-07-31T22:50:21;20.60;70.50
39325;DHT22;25037;49.488;9.900;2023-07-31T22:52:48;20.60;70.60
39325;DHT22;25037;49.488;9.900;2023-07-31T22:55:15;20.60;70.70
39325;DHT22;25037;49.488;9.900;2023-07-31T22:57:42;20.60;70.80
39325;DHT22;25037;49.488;9.900;2023-07-31T23:00:09;20.60;70.80
39325;DHT22;25037;49.488;9.900;2023-07-31T23:02:35;20.60;70.90
39325;DHT22;25037;49.488;9.900;2023-07-31T23:05:02;20.60;71.00
39325;DHT22;25037;49.488;9.900;2023-07-31T23:07:29;20.60;71.10
39325;DHT22;25037;49.488;9.900;2023-07-31T23:09:56;20.60;71.10
39325;DHT22;25037;49.488;9.900;2023-07-31T23:12:23;20.50;71.20
39325;DHT22;25037;49.488;9.900;2023-07-31T23:14:50;20.50;71.30
39325;DHT22;25037;49.488;9.900;2023-07-31T23:17:17;20.50;71.40
39325;DHT22;25037;49.488;9.900;2023-07-31T23:19:43;20.50;71.50
39325;DHT22;25037;49.488;9.900;2023-07-31T23:22:10;20.50;71.50
39325;DHT22;25037;49.488;9.900;2023-07-31T23:24:37;20.50;71.60
39325;DHT22;25037;49.488;9.900;2023-07-31T23:27:03;20.50;71.70
39325;DHT22;25037;49.488;9.900;2023-07-31T23:29:30;20.50;71.70
39325;DHT22;25037;49.488;9.900;2023-07-31T23:31:57;20.50;71.80
39325;DHT22;25037;49.488;9.900;2023-07-31T23:34:24;20.50;71.80
39325;DHT22;25037;49.488;9.900;2023-07-31T23:36:50;20.40;71.80
39325;DHT22;25037;49.488;9.900;2023-07-31T23:39:17;20.40;71.90
39325;DHT22;25037;49.488;9.900;2023-07-31T23:41:43;20.50;72.00
39325;DHT22;25037;49.488;9.900;2023-07-31T23:44:10;20.40;72.10
39325;DHT22;25037;49.488;9.900;2023-07-31T23:46:37;20.40;72.00
39325;DHT22;25037;49.488;9.900;2023-07-31T23:49:05;20.40;72.00
39325;DHT22;25037;49.488;9.900;2023-07-31T23:51:31;20.40;71.90
39325;DHT22;25037;49.488;9.900;2023-07-31T23:53:58;20.40;71.80
39325;DHT22;25037;49.488;9.900;2023-07-31T23:56:25;20.40;71.90
39325;DHT22;25037;49.488;9.900;2023-07-31T23:58:51;20.40;71.90
